Terminal Aerodrome Forecast
Issued by NWS

Home | Current Version | Previous Version | Text Only | Print | Product List | Glossary On
Versions: 1 2 3 4 5 6 7 8 9 10 11 12 13 14 15 16 17 18 19 20 21 22
193
FTUS42 KMHX 301833 AAD
TAFISO
TAF AMD
KISO 301833Z 3019/3118 VRB05KT 4SM SHRA OVC040
     FM310600 VRB03KT 4SM SHRA SCT008 BKN020
     FM311500 05007KT 4SM SHRA OVC040
      AMD LTD TO CLD VIS AND WIND=

USA.gov is the U.S. government's official web portal to all federal, state and local government web resources and services.